Time;durP1;ratioP1;P1;durP2;ratioP2;P2;SDS_P1;SDS_P2;PMS_P1;PMS_P2;Temp;Humidity;BMP_temperature;BMP_pressure;BME280_temperature;BME280_humidity;BME280_pressure;Samples;Min_cycle;Max_cycle;Signal;HPM_P1;HPM_P2
2021/07/25 00:00:43;;;;;;;17.45;13.30;;;;;;;19.57;57.15;100233.56;1671752;85;21723;-74
2021/07/25 00:03:11;;;;;;;21.70;14.18;;;;;;;19.57;57.22;100237.62;1675428;84;21474;-74
2021/07/25 00:05:40;;;;;;;19.37;12.90;;;;;;;19.59;57.30;100238.23;1675349;85;21025;-74
2021/07/25 00:08:11;;;;;;;17.90;12.82;;;;;;;19.57;57.35;100234.91;1675693;84;21534;-74
2021/07/25 00:10:34;;;;;;;15.40;11.78;;;;;;;19.57;57.46;100237.62;1648707;87;21045;-74
2021/07/25 00:13:00;;;;;;;21.15;13.50;;;;;;;19.56;57.52;100238.70;1682694;85;21132;-74
2021/07/25 00:15:26;;;;;;;18.98;13.03;;;;;;;19.54;57.61;100234.03;1682186;85;21463;-74
2021/07/25 00:17:52;;;;;;;22.17;13.68;;;;;;;19.53;57.69;100233.76;1678376;85;21081;-74
2021/07/25 00:20:18;;;;;;;20.92;13.28;;;;;;;19.51;57.78;100235.85;1676170;84;21044;-74
2021/07/25 00:22:44;;;;;;;17.98;13.48;;;;;;;19.51;57.86;100233.14;1675601;85;21017;-74
2021/07/25 00:25:19;;;;;;;16.62;12.82;;;;;;;19.48;57.95;100226.33;1675242;85;21017;-74
2021/07/25 00:27:42;;;;;;;20.92;12.88;;;;;;;19.47;58.01;100229.25;1644945;87;21069;-74
2021/07/25 00:30:11;;;;;;;23.35;13.53;;;;;;;19.44;58.09;100227.31;1632861;87;21509;-74
2021/07/25 00:32:38;;;;;;;18.90;13.05;;;;;;;19.40;58.20;100219.34;1632233;87;21017;-74
2021/07/25 00:35:05;;;;;;;16.32;12.58;;;;;;;19.37;58.27;100217.63;1645281;87;21014;-74
2021/07/25 00:37:31;;;;;;;21.70;13.58;;;;;;;19.36;58.38;100210.03;1644289;87;21162;-74
2021/07/25 00:39:57;;;;;;;20.25;13.95;;;;;;;19.35;58.46;100204.31;1675188;85;21081;-74
2021/07/25 00:42:23;;;;;;;16.90;13.75;;;;;;;19.34;58.54;100198.63;1675683;85;21462;-74
2021/07/25 00:44:50;;;;;;;20.15;13.95;;;;;;;19.31;58.61;100190.16;1675600;84;21045;-74
2021/07/25 00:47:16;;;;;;;21.07;13.05;;;;;;;19.28;58.73;100191.42;1675246;85;21064;-74
2021/07/25 00:49:42;;;;;;;17.10;13.40;;;;;;;19.25;58.79;100185.13;1675671;85;21196;-74
2021/07/25 00:52:08;;;;;;;18.35;13.50;;;;;;;19.23;58.89;100180.50;1675568;85;21614;-74
2021/07/25 00:54:35;;;;;;;19.65;13.55;;;;;;;19.22;58.98;100186.95;1644910;86;21086;-74
2021/07/25 00:57:01;;;;;;;19.12;13.50;;;;;;;19.17;59.05;100181.43;1671536;85;20997;-74
2021/07/25 00:59:28;;;;;;;20.20;14.35;;;;;;;19.16;59.14;100175.72;1677079;84;21872;-74
2021/07/25 01:01:54;;;;;;;20.68;13.45;;;;;;;19.14;59.25;100171.05;1683015;85;21974;-74
2021/07/25 01:04:37;;;;;;;20.82;13.55;;;;;;;19.13;59.37;100169.42;1642277;86;21473;-74
2021/07/25 01:07:35;;;;;;;18.12;13.50;;;;;;;19.11;59.46;100166.11;1644736;86;21497;-74
2021/07/25 01:10:15;;;;;;;20.82;13.65;;;;;;;19.06;59.58;100155.70;1645522;86;21025;-74
2021/07/25 01:12:50;;;;;;;17.25;13.50;;;;;;;18.99;59.63;100153.63;1611060;88;21039;-74
2021/07/25 01:15:20;;;;;;;18.52;13.58;;;;;;;18.96;59.77;100153.58;1649683;86;21423;-74
2021/07/25 01:17:46;;;;;;;21.25;14.10;;;;;;;18.92;59.85;100155.08;1682704;85;21009;-74
2021/07/25 01:20:12;;;;;;;16.97;13.40;;;;;;;18.86;59.98;100148.70;1683193;85;21485;-74
2021/07/25 01:22:43;;;;;;;19.57;14.00;;;;;;;18.87;60.09;100150.88;1683032;85;21016;-74
2021/07/25 01:25:14;;;;;;;18.50;13.50;;;;;;;18.86;60.18;100160.86;1682302;85;21616;-74
2021/07/25 01:27:54;;;;;;;21.10;13.95;;;;;;;18.84;60.26;100156.75;1662834;85;21401;-74
2021/07/25 01:30:22;;;;;;;22.67;15.10;;;;;;;18.82;60.38;100154.27;1670974;85;21054;-74
2021/07/25 01:32:52;;;;;;;17.62;13.95;;;;;;;18.77;60.45;100162.77;1682853;85;21009;-74
2021/07/25 01:35:18;;;;;;;17.20;13.60;;;;;;;18.74;60.54;100157.30;1682943;85;22213;-74
2021/07/25 01:37:44;;;;;;;18.57;14.40;;;;;;;18.72;60.61;100159.92;1682560;85;20998;-74
2021/07/25 01:40:20;;;;;;;20.02;14.50;;;;;;;18.69;60.71;100157.67;1649601;87;21152;-74
2021/07/25 01:42:46;;;;;;;18.02;13.93;;;;;;;18.62;60.81;100154.23;1629483;86;21024;-74
2021/07/25 01:45:13;;;;;;;21.12;14.30;;;;;;;18.55;60.93;100154.85;1642374;86;21029;-74
2021/07/25 01:47:39;;;;;;;21.25;14.13;;;;;;;18.48;61.03;100147.63;1642940;87;21028;-74
2021/07/25 01:50:06;;;;;;;19.48;14.95;;;;;;;18.41;61.18;100149.59;1645633;86;21129;-74
2021/07/25 01:52:32;;;;;;;18.27;13.48;;;;;;;18.36;61.30;100146.77;1648038;86;21196;-74
2021/07/25 01:54:58;;;;;;;17.37;13.80;;;;;;;18.34;61.40;100144.80;1639969;85;21010;-74
2021/07/25 01:57:25;;;;;;;20.35;15.30;;;;;;;18.32;61.49;100144.22;1686074;84;21477;-74
2021/07/25 01:59:51;;;;;;;22.25;14.20;;;;;;;18.25;61.60;100139.42;1679910;85;21076;-74
2021/07/25 02:02:17;;;;;;;19.35;15.10;;;;;;;18.19;61.72;100134.91;1659607;85;21120;-74
2021/07/25 02:04:43;;;;;;;21.07;15.10;;;;;;;18.16;61.85;100142.11;1659458;86;22233;-74
2021/07/25 02:07:09;;;;;;;17.23;14.30;;;;;;;18.13;61.96;100139.86;1659424;86;21008;-74
2021/07/25 02:09:36;;;;;;;19.30;15.00;;;;;;;18.09;62.06;100142.70;1659239;86;21040;-74
2021/07/25 02:12:10;;;;;;;22.62;15.68;;;;;;;18.04;62.19;100146.63;1659512;86;21028;-74
2021/07/25 02:14:36;;;;;;;18.95;14.47;;;;;;;18.02;62.29;100150.05;1659419;85;21088;-74
2021/07/25 02:17:04;;;;;;;19.73;15.53;;;;;;;18.00;62.42;100135.97;1659578;85;21086;-74
2021/07/25 02:19:30;;;;;;;21.12;15.95;;;;;;;17.94;62.53;100130.13;1659163;86;21482;-74
2021/07/25 02:21:56;;;;;;;17.32;13.85;;;;;;;17.89;62.63;100129.97;1659350;86;21013;-74
2021/07/25 02:24:22;;;;;;;21.65;16.15;;;;;;;17.85;62.76;100124.71;1659347;86;21060;-74
2021/07/25 02:26:49;;;;;;;19.55;15.65;;;;;;;17.84;62.88;100128.45;1659427;86;21036;-74
2021/07/25 02:29:15;;;;;;;21.42;15.63;;;;;;;17.82;62.95;100127.86;1659433;86;20997;-74
2021/07/25 02:31:41;;;;;;;22.70;16.07;;;;;;;17.82;63.05;100131.39;1659429;85;21482;-74
2021/07/25 02:34:07;;;;;;;20.92;15.23;;;;;;;17.85;63.15;100127.41;1659437;86;21001;-74
2021/07/25 02:36:33;;;;;;;19.27;16.10;;;;;;;17.87;63.23;100138.82;1659358;86;21017;-74
2021/07/25 02:38:59;;;;;;;19.82;16.35;;;;;;;17.85;63.32;100129.59;1659424;86;21096;-74
2021/07/25 02:41:25;;;;;;;23.75;16.82;;;;;;;17.85;63.41;100130.11;1659530;86;21166;-74
2021/07/25 02:43:51;;;;;;;20.00;15.95;;;;;;;17.81;63.52;100127.55;1659559;86;21497;-74
2021/07/25 02:46:17;;;;;;;21.80;17.10;;;;;;;17.79;63.59;100126.45;1659703;86;21501;-74
2021/07/25 02:48:43;;;;;;;21.93;16.93;;;;;;;17.76;63.66;100127.41;1659531;86;21008;-74
2021/07/25 02:51:09;;;;;;;26.80;16.57;;;;;;;17.72;63.77;100129.73;1659694;86;21029;-74
2021/07/25 02:53:35;;;;;;;21.20;16.57;;;;;;;17.70;63.84;100137.72;1659412;86;21043;-74
2021/07/25 02:56:01;;;;;;;28.23;17.55;;;;;;;17.66;63.90;100129.80;1659340;86;21077;-74
2021/07/25 02:58:27;;;;;;;21.42;16.25;;;;;;;17.62;64.00;100130.77;1659692;86;21548;-74
2021/07/25 03:00:53;;;;;;;27.17;16.60;;;;;;;17.57;64.09;100131.11;1659355;85;21005;-74
2021/07/25 03:03:19;;;;;;;22.52;17.27;;;;;;;17.53;64.19;100129.88;1659717;86;21036;-74
2021/07/25 03:05:45;;;;;;;20.12;16.67;;;;;;;17.48;64.31;100132.73;1659573;86;21136;-74
2021/07/25 03:08:11;;;;;;;21.23;17.12;;;;;;;17.45;64.39;100130.45;1659599;86;21028;-74
2021/07/25 03:10:41;;;;;;;24.02;18.67;;;;;;;17.43;64.50;100129.03;1659614;85;21533;-74
2021/07/25 03:13:07;;;;;;;23.47;19.05;;;;;;;17.40;64.60;100130.31;1659655;86;21013;-74
2021/07/25 03:15:33;;;;;;;27.45;18.95;;;;;;;17.40;64.69;100130.31;1659724;86;21012;-74
2021/07/25 03:17:59;;;;;;;26.12;20.15;;;;;;;17.39;64.77;100131.86;1659712;86;21482;-73
2021/07/25 03:20:26;;;;;;;23.87;20.17;;;;;;;17.38;64.87;100130.23;1659589;86;21529;-74
2021/07/25 03:22:53;;;;;;;33.38;23.70;;;;;;;17.37;64.96;100126.71;1659427;86;21544;-74
2021/07/25 03:25:19;;;;;;;29.63;22.02;;;;;;;17.38;65.03;100132.93;1659668;86;21021;-74
2021/07/25 03:27:45;;;;;;;28.77;20.82;;;;;;;17.35;65.12;100127.44;1659556;86;21052;-74
2021/07/25 03:30:12;;;;;;;28.20;20.43;;;;;;;17.34;65.18;100125.81;1659503;86;21461;-74
2021/07/25 03:32:38;;;;;;;27.75;20.02;;;;;;;17.34;65.29;100135.24;1659539;86;21016;-74
2021/07/25 03:35:04;;;;;;;27.37;19.92;;;;;;;17.33;65.37;100134.93;1659532;85;21005;-74
2021/07/25 03:37:31;;;;;;;26.87;18.67;;;;;;;17.32;65.45;100135.97;1659453;86;21012;-74
2021/07/25 03:39:57;;;;;;;23.50;18.35;;;;;;;17.33;65.52;100137.62;1659472;85;21116;-74
2021/07/25 03:42:23;;;;;;;28.30;19.35;;;;;;;17.36;65.58;100133.66;1659371;86;21172;-74
2021/07/25 03:44:49;;;;;;;24.37;18.95;;;;;;;17.37;65.64;100135.31;1659474;86;21592;-74
2021/07/25 03:47:15;;;;;;;28.52;19.87;;;;;;;17.39;65.70;100138.09;1659656;86;21631;-74
2021/07/25 03:49:42;;;;;;;29.80;20.62;;;;;;;17.41;65.75;100140.05;1659548;86;21061;-74
2021/07/25 03:52:09;;;;;;;24.85;18.95;;;;;;;17.46;65.79;100136.67;1659429;86;21037;-74
2021/07/25 03:54:38;;;;;;;24.10;19.48;;;;;;;17.49;65.84;100130.84;1659569;85;21873;-74
2021/07/25 03:57:05;;;;;;;25.45;19.90;;;;;;;17.57;65.86;100124.38;1659345;85;21127;-74
2021/07/25 03:59:31;;;;;;;29.85;21.30;;;;;;;17.76;66.00;100130.11;1659697;86;21060;-74
2021/07/25 04:01:57;;;;;;;25.97;19.77;;;;;;;18.04;65.99;100128.25;1659119;85;21545;-74
2021/07/25 04:04:23;;;;;;;31.85;21.00;;;;;;;18.38;65.86;100125.75;1659630;86;21017;-74
2021/07/25 04:06:49;;;;;;;25.62;18.95;;;;;;;18.76;65.64;100121.94;1659419;86;21142;-74
2021/07/25 04:09:15;;;;;;;22.95;18.77;;;;;;;19.16;65.47;100117.59;1659397;86;21009;-74
2021/07/25 04:11:41;;;;;;;23.98;19.02;;;;;;;19.13;65.05;100116.70;1659602;86;21064;-74
2021/07/25 04:14:07;;;;;;;28.25;20.45;;;;;;;18.90;64.92;100123.39;1659482;86;21005;-74
2021/07/25 04:16:33;;;;;;;25.05;18.50;;;;;;;18.71;64.93;100128.05;1659590;86;21060;-75
2021/07/25 04:18:59;;;;;;;24.35;18.57;;;;;;;18.58;65.02;100127.41;1659640;86;21486;-74
2021/07/25 04:21:26;;;;;;;24.45;19.45;;;;;;;18.71;65.10;100129.92;1659305;86;21501;-74
2021/07/25 04:23:52;;;;;;;28.95;19.62;;;;;;;18.73;64.89;100116.48;1659458;86;21084;-74
2021/07/25 04:26:18;;;;;;;26.55;20.37;;;;;;;18.75;64.95;100115.70;1659557;86;21053;-74
2021/07/25 04:28:44;;;;;;;29.35;21.95;;;;;;;18.68;64.77;100115.53;1659549;86;21037;-74
2021/07/25 04:31:11;;;;;;;31.70;22.87;;;;;;;18.55;64.78;100110.28;1659466;85;21141;-74
2021/07/25 04:33:39;;;;;;;25.40;20.70;;;;;;;18.48;64.85;100112.53;1659524;86;21024;-74
2021/07/25 04:36:12;;;;;;;30.95;22.13;;;;;;;18.45;64.90;100108.94;1617805;86;21582;-74
2021/07/25 04:38:35;;;;;;;24.63;19.48;;;;;;;18.50;64.93;100109.61;1658818;86;21058;-74
2021/07/25 04:41:01;;;;;;;28.65;20.08;;;;;;;18.57;64.90;100110.90;1659515;86;21768;-74
2021/07/25 04:43:31;;;;;;;25.35;20.08;;;;;;;18.67;64.91;100114.70;1659676;85;21825;-74
2021/07/25 04:46:10;;;;;;;25.23;19.35;;;;;;;18.72;64.90;100119.39;1659594;86;21009;-74
2021/07/25 04:48:48;;;;;;;27.17;20.37;;;;;;;18.81;64.92;100119.38;1659725;85;21060;-74
2021/07/25 04:51:14;;;;;;;27.20;20.05;;;;;;;18.93;64.89;100118.87;1659484;86;21568;-74
2021/07/25 04:53:41;;;;;;;28.40;19.65;;;;;;;19.03;64.82;100118.33;1659549;85;21084;-74
2021/07/25 04:56:10;;;;;;;23.75;19.10;;;;;;;19.05;64.83;100126.50;1659400;86;21771;-74
2021/07/25 04:58:48;;;;;;;24.18;18.82;;;;;;;19.09;64.85;100127.69;1659426;85;21632;-74
2021/07/25 05:01:27;;;;;;;21.33;18.45;;;;;;;19.11;64.80;100126.91;1665184;85;21458;-74
2021/07/25 05:03:54;;;;;;;24.37;17.57;;;;;;;19.13;64.77;100126.17;1675378;85;21025;-74
2021/07/25 05:06:22;;;;;;;23.55;17.77;;;;;;;19.09;64.79;100130.39;1646599;85;21085;-74
2021/07/25 05:08:48;;;;;;;22.67;17.52;;;;;;;19.10;64.79;100131.22;1675610;85;21183;-74
2021/07/25 05:11:26;;;;;;;19.85;16.67;;;;;;;19.12;64.81;100127.22;1675376;85;21005;-74
2021/07/25 05:13:56;;;;;;;23.85;17.95;;;;;;;19.14;64.81;100135.11;1675352;84;21029;-74
2021/07/25 05:16:42;;;;;;;25.08;17.02;;;;;;;19.15;64.80;100128.10;1675599;84;21048;-74
2021/07/25 05:19:16;;;;;;;23.87;18.48;;;;;;;19.17;64.78;100128.71;1671734;84;21017;-75
2021/07/25 05:21:43;;;;;;;22.85;18.00;;;;;;;19.21;64.77;100133.13;1648152;86;21089;-75
2021/07/25 05:24:09;;;;;;;28.47;17.52;;;;;;;19.27;64.75;100134.89;1620981;88;21090;-75
2021/07/25 05:26:36;;;;;;;24.80;18.27;;;;;;;19.34;64.74;100140.49;1648163;86;21590;-75
2021/07/25 05:29:02;;;;;;;23.35;17.15;;;;;;;19.37;64.69;100145.43;1647743;87;21032;-75
2021/07/25 05:31:31;;;;;;;24.95;18.23;;;;;;;19.43;64.68;100148.58;1648449;86;21573;-75
2021/07/25 05:33:57;;;;;;;23.12;17.95;;;;;;;19.48;64.64;100150.59;1648041;86;21069;-75
2021/07/25 05:36:23;;;;;;;21.12;17.50;;;;;;;19.55;64.61;100147.77;1648025;86;21085;-75
2021/07/25 05:38:51;;;;;;;23.92;17.80;;;;;;;19.66;64.57;100149.66;1648103;86;32673;-75
2021/07/25 05:41:17;;;;;;;23.57;17.92;;;;;;;19.73;64.52;100159.84;1648138;86;21028;-75
2021/07/25 05:43:43;;;;;;;26.52;17.65;;;;;;;19.80;64.46;100160.55;1618549;87;21064;-75
2021/07/25 05:46:09;;;;;;;23.75;18.35;;;;;;;19.87;64.39;100151.77;1606948;89;21242;-75
2021/07/25 05:48:35;;;;;;;21.00;17.02;;;;;;;19.97;64.35;100164.17;1607000;89;21100;-75
2021/07/25 05:51:03;;;;;;;22.27;17.12;;;;;;;20.02;64.23;100157.50;1606907;89;21041;-75
2021/07/25 05:53:32;;;;;;;24.75;16.93;;;;;;;20.14;64.16;100155.62;1606719;89;21028;-75
2021/07/25 05:55:58;;;;;;;23.40;17.77;;;;;;;20.34;64.04;100152.53;1606985;89;21093;-75
2021/07/25 05:58:24;;;;;;;22.60;17.70;;;;;;;20.50;63.89;100157.22;1606958;89;21162;-75
2021/07/25 06:00:52;;;;;;;21.75;16.90;;;;;;;20.62;63.71;100158.55;1606836;88;21510;-75
2021/07/25 06:03:18;;;;;;;20.95;16.67;;;;;;;20.88;63.54;100156.59;1606830;89;21096;-75
2021/07/25 06:05:44;;;;;;;21.85;16.65;;;;;;;21.25;63.37;100157.81;1607009;89;21048;-75
2021/07/25 06:08:10;;;;;;;22.60;16.52;;;;;;;21.35;63.12;100153.95;1606720;89;21053;-75
2021/07/25 06:10:41;;;;;;;20.27;16.45;;;;;;;21.46;62.93;100154.11;1606884;89;21171;-75
2021/07/25 06:13:08;;;;;;;27.67;16.77;;;;;;;21.53;62.74;100156.13;1606632;89;21486;-75
2021/07/25 06:15:34;;;;;;;22.87;16.67;;;;;;;21.59;62.57;100165.45;1606919;89;21128;-75
2021/07/25 06:18:01;;;;;;;22.30;16.30;;;;;;;21.57;62.36;100162.14;1606886;89;21043;-75
2021/07/25 06:20:28;;;;;;;20.43;16.42;;;;;;;21.54;62.22;100167.24;1606883;89;21081;-75
2021/07/25 06:22:55;;;;;;;21.50;15.38;;;;;;;21.56;62.12;100165.13;1607006;89;21194;-75
2021/07/25 06:25:24;;;;;;;23.73;16.90;;;;;;;21.58;62.04;100161.61;1606879;89;21044;-75
2021/07/25 06:27:58;;;;;;;25.32;16.23;;;;;;;21.47;61.92;100163.88;1602962;89;21053;-75
2021/07/25 06:30:25;;;;;;;21.93;16.37;;;;;;;21.43;61.93;100163.02;1605196;89;21064;-75
2021/07/25 06:33:07;;;;;;;23.10;19.07;;;;;;;21.47;61.91;100171.48;1614706;88;21041;-75
2021/07/25 06:35:36;;;;;;;21.77;17.35;;;;;;;21.54;61.90;100172.67;1618202;88;21108;-75
2021/07/25 06:38:06;;;;;;;20.82;17.82;;;;;;;21.52;61.84;100172.11;1654808;86;21528;-75
2021/07/25 06:40:32;;;;;;;20.80;17.67;;;;;;;21.52;61.81;100176.18;1649189;86;21029;-75
2021/07/25 06:42:59;;;;;;;19.12;16.70;;;;;;;21.47;61.78;100186.94;1647761;86;21016;-75
2021/07/25 06:45:25;;;;;;;19.98;16.87;;;;;;;21.41;61.86;100182.80;1648147;86;21093;-75
2021/07/25 06:47:51;;;;;;;24.65;16.45;;;;;;;21.30;61.86;100187.77;1648249;86;21095;-75
2021/07/25 06:50:19;;;;;;;22.07;17.65;;;;;;;21.17;61.95;100193.50;1647739;87;21032;-75
2021/07/25 06:52:45;;;;;;;22.37;16.23;;;;;;;21.06;62.03;100186.21;1648243;86;21096;-75
2021/07/25 06:55:11;;;;;;;24.57;17.82;;;;;;;20.97;62.19;100183.59;1648196;86;21530;-75
2021/07/25 06:57:37;;;;;;;24.75;18.15;;;;;;;20.94;62.30;100178.12;1648119;86;21048;-75
2021/07/25 07:00:05;;;;;;;22.60;17.75;;;;;;;20.94;62.41;100182.72;1648327;86;22058;-75
2021/07/25 07:02:56;;;;;;;25.00;18.02;;;;;;;20.94;62.53;100179.48;1621819;88;21029;-75
2021/07/25 07:05:25;;;;;;;20.55;16.87;;;;;;;20.98;62.63;100181.17;1620762;88;21040;-75
2021/07/25 07:07:53;;;;;;;20.90;17.12;;;;;;;20.97;62.69;100184.15;1620937;87;21041;-75
2021/07/25 07:10:22;;;;;;;29.95;18.20;;;;;;;21.00;62.73;100182.30;1621149;88;21111;-75
2021/07/25 07:12:49;;;;;;;27.50;16.82;;;;;;;21.07;62.77;100175.66;1621047;88;21225;-75
2021/07/25 07:15:15;;;;;;;23.00;17.62;;;;;;;21.16;62.80;100176.94;1621076;88;21531;-75
2021/07/25 07:17:41;;;;;;;21.50;16.77;;;;;;;21.24;62.85;100180.61;1621048;88;21054;-75
2021/07/25 07:20:10;;;;;;;22.07;17.42;;;;;;;21.25;62.82;100176.02;1621002;88;21083;-75
2021/07/25 07:22:36;;;;;;;20.77;16.50;;;;;;;21.28;62.83;100181.77;1621171;88;21045;-75
2021/07/25 07:25:04;;;;;;;23.73;15.90;;;;;;;21.29;62.79;100175.25;1621208;88;21536;-75
2021/07/25 07:27:30;;;;;;;21.62;16.87;;;;;;;21.25;62.75;100176.81;1621259;88;21089;-75
2021/07/25 07:29:56;;;;;;;20.48;16.15;;;;;;;21.26;62.75;100173.04;1621084;88;21080;-75
2021/07/25 07:32:22;;;;;;;24.00;17.45;;;;;;;21.26;62.71;100168.97;1621265;88;21506;-75
2021/07/25 07:34:48;;;;;;;20.52;17.00;;;;;;;21.30;62.67;100169.30;1621026;88;21528;-75
2021/07/25 07:37:14;;;;;;;22.77;15.00;;;;;;;21.35;62.66;100163.44;1621130;88;21033;-75
2021/07/25 07:39:41;;;;;;;18.50;16.40;;;;;;;21.42;62.60;100161.92;1621160;88;21031;-75
2021/07/25 07:42:07;;;;;;;17.70;15.72;;;;;;;21.43;62.55;100157.32;1620969;88;21045;-75
2021/07/25 07:44:34;;;;;;;20.80;15.68;;;;;;;21.44;62.57;100158.41;1621207;88;21079;-75
2021/07/25 07:47:00;;;;;;;18.52;15.05;;;;;;;21.53;62.60;100160.19;1621234;87;21435;-75
2021/07/25 07:49:26;;;;;;;19.23;15.90;;;;;;;21.61;62.55;100158.40;1621137;88;21733;-75
2021/07/25 07:51:52;;;;;;;28.62;17.77;;;;;;;21.68;62.53;100153.63;1621253;87;21017;-75
2021/07/25 07:54:18;;;;;;;19.67;15.95;;;;;;;21.73;62.45;100155.90;1621051;88;21022;-75
2021/07/25 07:56:44;;;;;;;23.05;15.03;;;;;;;21.74;62.40;100153.45;1621207;88;21108;-75
2021/07/25 07:59:10;;;;;;;20.35;15.32;;;;;;;21.74;62.36;100149.94;1620890;88;21094;-75
2021/07/25 08:01:36;;;;;;;22.95;14.85;;;;;;;21.78;62.37;100149.70;1621234;88;21180;-75
2021/07/25 08:04:02;;;;;;;18.92;14.45;;;;;;;21.83;62.36;100140.28;1620699;88;21102;-75
2021/07/25 08:06:29;;;;;;;16.95;14.25;;;;;;;21.93;62.31;100149.96;1621152;88;21045;-75
2021/07/25 08:08:55;;;;;;;17.05;14.45;;;;;;;21.97;62.25;100142.96;1621105;88;21020;-75
2021/07/25 08:11:21;;;;;;;20.45;15.55;;;;;;;22.03;62.23;100141.13;1621151;88;21797;-75
2021/07/25 08:13:47;;;;;;;21.00;14.35;;;;;;;22.07;62.20;100136.84;1621096;88;21977;-75
2021/07/25 08:16:13;;;;;;;15.38;13.85;;;;;;;22.10;62.17;100134.97;1620764;88;21028;-75
2021/07/25 08:18:39;;;;;;;16.85;12.75;;;;;;;22.11;62.19;100138.81;1620996;88;21007;-75
2021/07/25 08:21:05;;;;;;;18.10;13.78;;;;;;;22.05;62.18;100145.79;1621047;87;21040;-75
2021/07/25 08:23:32;;;;;;;17.62;14.50;;;;;;;22.01;62.17;100148.19;1621258;88;21095;-75
2021/07/25 08:25:58;;;;;;;18.52;13.60;;;;;;;22.04;62.16;100141.42;1621129;88;21333;-75
2021/07/25 08:28:24;;;;;;;17.57;13.65;;;;;;;22.03;62.12;100143.31;1621099;88;21480;-75
2021/07/25 08:30:50;;;;;;;19.45;14.03;;;;;;;22.10;62.12;100142.59;1621046;88;21210;-75
2021/07/25 08:33:16;;;;;;;19.23;14.83;;;;;;;22.13;62.10;100144.80;1620870;88;21093;-75
2021/07/25 08:35:42;;;;;;;18.60;14.23;;;;;;;22.15;62.08;100140.48;1623479;87;21119;-75
2021/07/25 08:38:09;;;;;;;17.57;14.40;;;;;;;22.25;62.09;100148.23;1624118;86;21417;-75
2021/07/25 08:40:35;;;;;;;17.82;14.55;;;;;;;22.29;62.08;100142.58;1676459;84;21080;-75
2021/07/25 08:43:07;;;;;;;18.82;14.38;;;;;;;22.32;62.08;100143.97;1677242;85;21049;-75
2021/07/25 08:45:35;;;;;;;16.35;13.85;;;;;;;22.37;62.05;100148.94;1679310;85;21064;-75
2021/07/25 08:48:10;;;;;;;17.67;14.28;;;;;;;22.35;61.99;100142.92;1679079;85;20994;-75
2021/07/25 08:50:40;;;;;;;21.55;14.55;;;;;;;22.33;61.98;100146.97;1679023;85;21444;-75
2021/07/25 08:53:06;;;;;;;;;;;;;;;22.35;62.05;100151.08;1681786;85;20914;-75
2021/07/25 08:55:32;;;;;;;17.00;13.32;;;;;;;22.41;62.08;100158.20;1692515;84;20259;-75
2021/07/25 08:57:59;;;;;;;17.92;13.93;;;;;;;22.36;62.05;100156.80;1697314;84;20951;-75
2021/07/25 09:00:26;;;;;;;17.55;13.10;;;;;;;22.32;62.04;100161.09;1695842;84;21092;-75
2021/07/25 09:02:52;;;;;;;18.27;13.30;;;;;;;22.30;62.04;100161.89;1671573;85;21441;-75
2021/07/25 09:05:19;;;;;;;17.37;12.65;;;;;;;22.29;62.10;100167.04;1676889;85;21064;-75
2021/07/25 09:07:45;;;;;;;15.53;13.85;;;;;;;22.35;62.11;100171.45;1672852;85;21405;-75
2021/07/25 09:10:15;;;;;;;16.23;14.43;;;;;;;22.36;62.12;100167.67;1663019;85;21059;-75
2021/07/25 09:12:41;;;;;;;;;;;;;;;22.41;62.17;100171.80;1677169;85;21036;-75
2021/07/25 09:15:13;;;;;;;18.20;14.95;;;;;;;22.43;62.16;100174.80;1662252;85;22270;-75
2021/07/25 09:17:40;;;;;;;17.10;14.03;;;;;;;22.49;62.17;100180.05;1641019;87;21019;-75
2021/07/25 09:20:36;;;;;;;16.75;14.15;;;;;;;22.51;62.13;100186.60;1642955;87;21478;-75
2021/07/25 09:23:18;;;;;;;18.05;13.55;;;;;;;22.54;62.13;100183.37;1641818;87;21396;-76
2021/07/25 09:25:49;;;;;;;19.27;15.15;;;;;;;22.63;62.15;100195.44;1643479;87;21517;-75
2021/07/25 09:28:19;;;;;;;22.17;16.00;;;;;;;22.70;62.13;100192.84;1640753;87;21254;-75
2021/07/25 09:30:45;;;;;;;20.40;15.90;;;;;;;22.74;62.09;100199.95;1644126;85;21450;-75
2021/07/25 09:33:27;;;;;;;18.02;15.65;;;;;;;22.80;62.07;100196.20;1675813;85;20969;-75
2021/07/25 09:36:14;;;;;;;21.02;15.60;;;;;;;22.93;62.07;100203.99;1627315;86;21501;-75
2021/07/25 09:38:41;;;;;;;20.40;14.90;;;;;;;22.99;62.02;100199.41;1598021;87;21567;-75
2021/07/25 09:41:21;;;;;;;20.23;15.15;;;;;;;23.08;61.98;100197.33;1628685;87;21624;-75
2021/07/25 09:43:59;;;;;;;18.12;16.10;;;;;;;23.14;61.92;100197.69;1627674;87;21013;-75
2021/07/25 09:46:26;;;;;;;19.67;15.78;;;;;;;23.14;61.84;100194.97;1641845;87;21080;-75
2021/07/25 09:49:00;;;;;;;19.17;16.23;;;;;;;23.25;61.82;100191.80;1644915;86;21029;-73
2021/07/25 09:51:23;;;;;;;19.10;14.05;;;;;;;23.32;61.73;100194.59;1634146;85;21041;-73
2021/07/25 09:53:52;;;;;;;20.30;15.88;;;;;;;23.33;61.66;100197.58;1651665;85;21822;-74
2021/07/25 09:56:23;;;;;;;21.85;15.60;;;;;;;23.40;61.68;100193.28;1634280;85;21025;-74
2021/07/25 09:58:49;;;;;;;21.37;16.12;;;;;;;23.52;61.63;100191.79;1661806;85;21033;-74
2021/07/25 10:01:40;;;;;;;19.00;15.28;;;;;;;23.56;61.56;100198.36;1656431;85;21013;-74
2021/07/25 10:04:21;;;;;;;16.60;14.70;;;;;;;23.47;61.51;100194.48;1674298;85;21072;-73
2021/07/25 10:06:49;;;;;;;20.60;15.83;;;;;;;23.35;61.48;100194.61;1701759;84;22438;-74
2021/07/25 10:09:18;;;;;;;18.17;15.23;;;;;;;23.32;61.57;100192.41;1693483;83;21031;-73
2021/07/25 10:11:53;;;;;;;23.87;15.70;;;;;;;23.32;61.57;100192.41;1670279;85;21070;-73
2021/07/25 10:14:20;;;;;;;17.42;15.58;;;;;;;23.25;61.61;100196.71;1672633;85;21417;-73
2021/07/25 10:16:52;;;;;;;17.32;15.03;;;;;;;23.24;61.67;100193.70;1693588;84;21015;-73
2021/07/25 10:19:15;;;;;;;21.45;16.32;;;;;;;23.35;61.78;100195.44;1674003;85;21733;-73
2021/07/25 10:21:41;;;;;;;16.55;14.33;;;;;;;23.35;61.81;100195.44;1674286;84;21700;-73
2021/07/25 10:24:07;;;;;;;20.52;15.18;;;;;;;23.25;61.92;100195.34;1672981;85;21029;-73
2021/07/25 10:26:33;;;;;;;18.80;15.48;;;;;;;23.19;62.07;100199.61;1688116;84;21040;-74
2021/07/25 10:28:59;;;;;;;17.40;15.58;;;;;;;23.10;62.24;100202.53;1702934;83;21035;-75
2021/07/25 10:31:26;;;;;;;21.45;14.70;;;;;;;23.05;62.43;100207.37;1698744;83;21765;-73
2021/07/25 10:33:53;;;;;;;18.05;13.20;;;;;;;23.00;62.60;100210.05;1684163;84;21029;-74
2021/07/25 10:36:20;;;;;;;15.78;12.73;;;;;;;22.93;62.78;100208.07;1674358;84;21493;-74
2021/07/25 10:38:46;;;;;;;16.12;12.95;;;;;;;22.85;62.87;100214.78;1670007;84;21099;-74
2021/07/25 10:41:24;;;;;;;14.85;12.58;;;;;;;22.82;62.98;100211.75;1674508;84;21033;-74
2021/07/25 10:43:50;;;;;;;22.75;14.25;;;;;;;22.73;63.07;100207.84;1683619;83;21663;-74
2021/07/25 10:46:23;;;;;;;18.20;13.58;;;;;;;22.73;63.25;100213.28;1683808;83;21081;-73
2021/07/25 10:49:09;;;;;;;15.40;13.80;;;;;;;22.69;63.42;100208.89;1646374;87;21032;-74
2021/07/25 10:51:37;;;;;;;17.32;14.47;;;;;;;22.73;63.61;100216.00;1637200;85;21033;-73
2021/07/25 10:54:28;;;;;;;18.80;14.83;;;;;;;22.70;63.83;100217.31;1674406;84;21551;-73
2021/07/25 10:57:10;;;;;;;16.27;14.53;;;;;;;22.63;64.13;100213.10;1678636;83;21616;-74
2021/07/25 10:59:44;;;;;;;17.05;13.75;;;;;;;22.67;64.38;100219.72;1655446;84;21081;-73
2021/07/25 11:02:28;;;;;;;18.70;14.40;;;;;;;22.57;64.63;100215.48;1699838;83;21005;-72
2021/07/25 11:04:59;;;;;;;20.70;16.30;;;;;;;22.45;64.86;100217.52;1651884;85;21021;-73
2021/07/25 11:07:32;;;;;;;18.75;14.10;;;;;;;22.46;65.13;100216.42;1646799;85;21025;-74
2021/07/25 11:10:12;;;;;;;19.00;15.18;;;;;;;22.39;65.33;100221.52;1652559;85;21709;-74
2021/07/25 11:12:55;;;;;;;19.70;15.50;;;;;;;22.35;65.53;100223.09;1646162;87;20927;-74
2021/07/25 11:15:34;;;;;;;18.55;14.80;;;;;;;22.27;65.74;100223.51;1644904;86;21072;-74